| time (UTC) | temp F | wind direction | speed MPH | gust MPH | rain 1hr in | rain 24hr in | rain mn in | humidity % | barometer mb |
| 20260503185238 | 63 | 187 | 9.0 | 11.0 | 0.00 | 0.00 | 0.00 | 32 | 1015.4 |
| 20260503184732 | 63 | 171 | 7.0 | 10.0 | 0.00 | 0.00 | 0.00 | 36 | 1015.4 |
| 20260503184224 | 63 | 179 | 11.0 | 11.0 | 0.00 | 0.00 | 0.00 | 34 | 1015.5 |
| 20260503183720 | 62 | 176 | 7.0 | 9.0 | 0.00 | 0.00 | 0.00 | 35 | 1015.6 |
| 20260503183217 | 63 | 153 | 11.0 | 11.0 | 0.00 | 0.00 | 0.00 | 32 | 1015.7 |
| 20260503182716 | 62 | 185 | 6.0 | 7.0 | 0.00 | 0.00 | 0.00 | 33 | 1015.6 |
| 20260503182214 | 64 | 182 | 7.0 | 8.0 | 0.00 | 0.00 | 0.00 | 34 | 1015.9 |
| 20260503181710 | 63 | 189 | 5.0 | 9.0 | 0.00 | 0.00 | 0.00 | 36 | 1015.8 |
| 20260503181207 | 64 | 184 | 5.0 | 7.0 | 0.00 | 0.00 | 0.00 | 36 | 1015.9 |
| 20260503180704 | 63 | 187 | 6.0 | 7.0 | 0.00 | 0.00 | 0.00 | 38 | 1015.9 |
| 20260503180203 | 64 | 187 | 9.0 | 12.0 | 0.00 | 0.00 | 0.00 | 31 | 1016.0 |
| 20260503175659 | 63 | 152 | 8.0 | 9.0 | 0.00 | 0.00 | 0.00 | 36 | 1016.1 |
| 20260503175156 | 62 | 174 | 6.0 | 11.0 | 0.00 | 0.00 | 0.00 | 34 | 1016.0 |
| 20260503174652 | 61 | 189 | 7.0 | 12.0 | 0.00 | 0.00 | 0.00 | 34 | 1016.2 |
| 20260503174150 | 61 | 140 | 7.0 | 13.0 | 0.00 | 0.00 | 0.00 | 33 | 1016.2 |
| 20260503173645 | 61 | 196 | 9.0 | 11.0 | 0.00 | 0.00 | 0.00 | 31 | 1016.5 |
| 20260503173141 | 62 | 192 | 8.0 | 9.0 | 0.00 | 0.00 | 0.00 | 34 | 1016.5 |
| 20260503172638 | 62 | 170 | 6.0 | 8.0 | 0.00 | 0.00 | 0.00 | 42 | 1016.4 |
| 20260503172136 | 61 | 189 | 6.0 | 8.0 | 0.00 | 0.00 | 0.00 | 34 | 1016.6 |
| 20260503171632 | 61 | 195 | 4.0 | 8.0 | 0.00 | 0.00 | 0.00 | 35 | 1016.8 |
| 20260503171130 | 60 | 168 | 5.0 | 6.0 | 0.00 | 0.00 | 0.00 | 38 | 1016.7 |
| 20260503170626 | 60 | 182 | 6.0 | 8.0 | 0.00 | 0.00 | 0.00 | 36 | 1016.9 |
| 20260503170123 | 61 | 153 | 12.0 | 12.0 | 0.00 | 0.00 | 0.00 | 35 | 1017.0 |
| 20260503150515 | 55 | 179 | 6.0 | 9.0 | 0.00 | 0.00 | 0.00 | 46 | 1018.5 |
| 20260503131407 | 44 | 146 | 6.0 | 8.0 | 0.00 | 0.00 | 0.00 | 70 | 1018.5 |
| 20260503130904 | 44 | 141 | 6.0 | 7.0 | 0.00 | 0.00 | 0.00 | 69 | 1018.6 |
| 20260503130402 | 44 | 152 | 6.0 | 7.0 | 0.00 | 0.00 | 0.00 | 71 | 1018.3 |
| 20260503110806 | 33 | 138 | 6.0 | 8.0 | 0.00 | 0.00 | 0.00 | 95 | 1018.0 |
| 20260503110303 | 33 | 138 | 6.0 | 8.0 | 0.00 | 0.00 | 0.00 | 95 | 1017.3 |
| 20260503100229 | 33 | 139 | 7.0 | 7.0 | 0.00 | 0.00 | 0.00 | 95 | 1017.1 |
| 20260503090153 | 33 | 132 | 7.0 | 7.0 | 0.00 | 0.00 | 0.00 | 94 | 1016.9 |
| 20260503081624 | 33 | 128 | 6.0 | 6.0 | 0.00 | 0.00 | 0.00 | 92 | 1016.9 |
| 20260503081121 | 34 | 128 | 6.0 | 6.0 | 0.00 | 0.00 | 0.00 | 92 | 1016.8 |
| 20260503080617 | 34 | 128 | 5.0 | 6.0 | 0.00 | 0.00 | 0.00 | 92 | 1017.0 |
| 20260503080114 | 34 | 132 | 6.0 | 7.0 | 0.00 | 0.00 | 0.00 | 92 | 1016.9 |
| 20260503072551 | 34 | 128 | 5.0 | 6.0 | 0.00 | 0.00 | 0.00 | 91 | 1016.7 |
| 20260503072048 | 34 | 125 | 6.0 | 6.0 | 0.00 | 0.00 | 0.00 | 90 | 1016.8 |
| 20260503071545 | 34 | 127 | 6.0 | 6.0 | 0.00 | 0.00 | 0.00 | 90 | 1016.7 |
| 20260503071042 | 34 | 128 | 5.0 | 6.0 | 0.00 | 0.00 | 0.00 | 90 | 1016.9 |
| 20260503070538 | 34 | 131 | 6.0 | 6.0 | 0.00 | 0.00 | 0.00 | 90 | 1016.7 |
| 20260503054957 | 36 | 130 | 5.0 | 6.0 | 0.00 | 0.00 | 0.00 | 86 | 1017.2 |
| 20260503054452 | 36 | 129 | 5.0 | 6.0 | 0.00 | 0.00 | 0.00 | 85 | 1017.3 |
| 20260503053950 | 36 | 126 | 5.0 | 6.0 | 0.00 | 0.00 | 0.00 | 85 | 1016.9 |
| 20260503053448 | 36 | 126 | 5.0 | 6.0 | 0.00 | 0.00 | 0.00 | 85 | 1017.1 |
| 20260503052944 | 36 | 128 | 5.0 | 6.0 | 0.00 | 0.00 | 0.00 | 84 | 1017.1 |
| 20260503052442 | 36 | 128 | 5.0 | 5.0 | 0.00 | 0.00 | 0.00 | 84 | 1017.4 |
| 20260503051938 | 37 | 125 | 6.0 | 6.0 | 0.00 | 0.00 | 0.00 | 84 | 1017.3 |
| 20260503051434 | 37 | 131 | 5.0 | 6.0 | 0.00 | 0.00 | 0.00 | 83 | 1017.3 |
| 20260503050931 | 37 | 127 | 5.0 | 6.0 | 0.00 | 0.00 | 0.00 | 83 | 1017.2 |
| 20260503050427 | 37 | 129 | 5.0 | 6.0 | 0.00 | 0.00 | 0.00 | 83 | 1017.1 |
| 20260503045925 | 37 | 121 | 6.0 | 6.0 | 0.00 | 0.00 | 0.00 | 82 | 1017.1 |
| 20260503045422 | 37 | 123 | 5.0 | 6.0 | 0.00 | 0.00 | 0.00 | 81 | 1017.2 |
| 20260503044919 | 37 | 134 | 5.0 | 6.0 | 0.00 | 0.00 | 0.00 | 80 | 1017.2 |
| 20260503044416 | 38 | 135 | 6.0 | 6.0 | 0.00 | 0.00 | 0.00 | 79 | 1017.0 |
| 20260503043914 | 38 | 130 | 6.0 | 7.0 | 0.00 | 0.00 | 0.00 | 77 | 1017.2 |
| 20260503043410 | 38 | 134 | 6.0 | 6.0 | 0.00 | 0.00 | 0.00 | 75 | 1017.1 |
| 20260503042906 | 39 | 129 | 5.0 | 6.0 | 0.00 | 0.00 | 0.00 | 74 | 1017.4 |
| 20260503042403 | 39 | 140 | 6.0 | 7.0 | 0.00 | 0.00 | 0.00 | 74 | 1017.3 |
| 20260503041859 | 39 | 139 | 5.0 | 6.0 | 0.00 | 0.00 | 0.00 | 72 | 1017.3 |
| 20260503041356 | 39 | 134 | 7.0 | 7.0 | 0.00 | 0.00 | 0.00 | 71 | 1017.1 |
| 20260503040854 | 39 | 129 | 5.0 | 6.0 | 0.00 | 0.00 | 0.00 | 71 | 1017.3 |
| 20260503040351 | 39 | 137 | 6.0 | 6.0 | 0.00 | 0.00 | 0.00 | 72 | 1017.2 |
| 20260503035848 | 39 | 134 | 5.0 | 6.0 | 0.00 | 0.00 | 0.00 | 72 | 1017.3 |
| 20260503035345 | 39 | 133 | 6.0 | 7.0 | 0.00 | 0.00 | 0.00 | 72 | 1017.5 |
| 20260503034842 | 39 | 135 | 5.0 | 6.0 | 0.00 | 0.00 | 0.00 | 72 | 1017.2 |
| 20260503034340 | 40 | 135 | 5.0 | 6.0 | 0.00 | 0.00 | 0.00 | 71 | 1017.5 |
| 20260503033837 | 40 | 139 | 5.0 | 6.0 | 0.00 | 0.00 | 0.00 | 70 | 1017.5 |
| 20260503033334 | 40 | 132 | 6.0 | 6.0 | 0.00 | 0.00 | 0.00 | 68 | 1017.6 |
| 20260503032832 | 40 | 133 | 6.0 | 6.0 | 0.00 | 0.00 | 0.00 | 66 | 1017.4 |
| 20260503032331 | 40 | 130 | 5.0 | 6.0 | 0.00 | 0.00 | 0.00 | 65 | 1017.4 |
| 20260503031828 | 41 | 125 | 5.0 | 6.0 | 0.00 | 0.00 | 0.00 | 64 | 1017.4 |
| 20260503031326 | 41 | 125 | 5.0 | 6.0 | 0.00 | 0.00 | 0.00 | 63 | 1017.2 |
| 20260503030822 | 41 | 130 | 5.0 | 6.0 | 0.00 | 0.00 | 0.00 | 63 | 1017.4 |
| 20260503030318 | 41 | 131 | 5.0 | 6.0 | 0.00 | 0.00 | 0.00 | 63 | 1017.3 |
| 20260503025815 | 42 | 122 | 5.0 | 6.0 | 0.00 | 0.00 | 0.00 | 62 | 1017.4 |
| 20260503025313 | 42 | 112 | 6.0 | 7.0 | 0.00 | 0.00 | 0.00 | 63 | 1017.3 |
| 20260503024809 | 41 | 133 | 5.0 | 8.0 | 0.00 | 0.00 | 0.00 | 63 | 1017.1 |
| 20260503024306 | 42 | 94 | 4.0 | 6.0 | 0.00 | 0.00 | 0.00 | 62 | 1017.0 |
| 20260503023803 | 42 | 109 | 5.0 | 6.0 | 0.00 | 0.00 | 0.00 | 63 | 1017.1 |
| 20260503023300 | 42 | 119 | 5.0 | 7.0 | 0.00 | 0.00 | 0.00 | 62 | 1017.2 |
| 20260503022757 | 42 | 134 | 5.0 | 6.0 | 0.00 | 0.00 | 0.00 | 62 | 1016.8 |
| 20260503022256 | 42 | 129 | 6.0 | 7.0 | 0.00 | 0.00 | 0.00 | 61 | 1016.9 |
| 20260503021753 | 43 | 135 | 5.0 | 5.0 | 0.00 | 0.00 | 0.00 | 61 | 1017.0 |
| 20260503021249 | 43 | 126 | 5.0 | 7.0 | 0.00 | 0.00 | 0.00 | 60 | 1017.1 |
| 20260503020747 | 43 | 118 | 6.0 | 7.0 | 0.00 | 0.00 | 0.00 | 59 | 1016.7 |
| 20260503020245 | 44 | 127 | 6.0 | 7.0 | 0.00 | 0.00 | 0.00 | 58 | 1016.7 |
| 20260503015741 | 44 | 121 | 6.0 | 6.0 | 0.00 | 0.00 | 0.00 | 59 | 1016.8 |
| 20260503015238 | 44 | 116 | 5.0 | 5.0 | 0.00 | 0.00 | 0.00 | 57 | 1016.8 |
| 20260503014733 | 44 | 114 | 5.0 | 6.0 | 0.00 | 0.00 | 0.00 | 56 | 1016.8 |
| 20260503014232 | 45 | 124 | 5.0 | 5.0 | 0.00 | 0.00 | 0.00 | 57 | 1016.6 |
| 20260503013729 | 45 | 102 | 6.0 | 6.0 | 0.00 | 0.00 | 0.00 | 56 | 1016.3 |
| 20260503013226 | 45 | 121 | 5.0 | 7.0 | 0.00 | 0.00 | 0.00 | 56 | 1016.3 |
| 20260503012724 | 45 | 117 | 3.0 | 6.0 | 0.00 | 0.00 | 0.00 | 55 | 1016.1 |
| 20260503012220 | 45 | 118 | 5.0 | 5.0 | 0.00 | 0.00 | 0.00 | 56 | 1016.4 |
| 20260503011717 | 45 | 105 | 4.0 | 5.0 | 0.00 | 0.00 | 0.00 | 54 | 1016.3 |
| 20260503011214 | 46 | 117 | 4.0 | 7.0 | 0.00 | 0.00 | 0.00 | 54 | 1016.2 |
| 20260503010710 | 46 | 112 | 4.0 | 6.0 | 0.00 | 0.00 | 0.00 | 55 | 1016.3 |
| 20260503010207 | 46 | 110 | 5.0 | 5.0 | 0.00 | 0.00 | 0.00 | 54 | 1016.2 |
| 20260503005705 | 46 | 126 | 7.0 | 7.0 | 0.00 | 0.00 | 0.00 | 54 | 1015.9 |
| 20260503005202 | 46 | 118 | 4.0 | 5.0 | 0.00 | 0.00 | 0.00 | 54 | 1015.9 |
| 20260503004658 | 46 | 125 | 5.0 | 6.0 | 0.00 | 0.00 | 0.00 | 52 | 1015.8 |
| 20260503004156 | 47 | 94 | 3.0 | 5.0 | 0.00 | 0.00 | 0.00 | 51 | 1015.9 |
| 20260503003653 | 47 | 123 | 4.0 | 6.0 | 0.00 | 0.00 | 0.00 | 51 | 1015.9 |
| 20260503003150 | 47 | 112 | 4.0 | 5.0 | 0.00 | 0.00 | 0.00 | 50 | 1016.0 |
| 20260503002647 | 48 | 100 | 3.0 | 5.0 | 0.00 | 0.00 | 0.00 | 49 | 1015.5 |
| 20260503002144 | 48 | 102 | 4.0 | 5.0 | 0.00 | 0.00 | 0.00 | 47 | 1015.6 |
| 20260503001639 | 49 | 100 | 4.0 | 4.0 | 0.00 | 0.00 | 0.00 | 48 | 1015.6 |
| 20260503001137 | 49 | 117 | 4.0 | 6.0 | 0.00 | 0.00 | 0.00 | 47 | 1015.5 |
| 20260503000634 | 50 | 123 | 3.0 | 6.0 | 0.00 | 0.00 | 0.00 | 48 | 1015.6 |
| 20260503000132 | 50 | 122 | 4.0 | 4.0 | 0.00 | 0.00 | 0.00 | 49 | 1015.8 |
| 20260502235628 | 50 | 122 | 5.0 | 8.0 | 0.00 | 0.00 | 0.00 | 44 | 1015.5 |
| 20260502235126 | 51 | 121 | 6.0 | 7.0 | 0.00 | 0.00 | 0.00 | 44 | 1015.4 |
| 20260502234621 | 51 | 59 | 5.0 | 9.0 | 0.00 | 0.00 | 0.00 | 45 | 1015.4 |
| 20260502234120 | 51 | 132 | 5.0 | 6.0 | 0.00 | 0.00 | 0.00 | 44 | 1015.3 |
| 20260502233615 | 51 | 95 | 4.0 | 7.0 | 0.00 | 0.00 | 0.00 | 40 | 1015.4 |
| 20260502233112 | 51 | 126 | 3.0 | 6.0 | 0.00 | 0.00 | 0.00 | 42 | 1015.3 |
| 20260502232608 | 51 | 132 | 5.0 | 9.0 | 0.00 | 0.00 | 0.00 | 43 | 1015.3 |
| 20260502232106 | 52 | 88 | 3.0 | 6.0 | 0.00 | 0.00 | 0.00 | 42 | 1015.4 |
| 20260502231602 | 52 | 131 | 3.0 | 12.0 | 0.00 | 0.00 | 0.00 | 43 | 1015.3 |
| 20260502231100 | 52 | 97 | 2.0 | 6.0 | 0.00 | 0.00 | 0.00 | 39 | 1015.1 |
| 20260502230558 | 52 | 100 | 5.0 | 8.0 | 0.00 | 0.00 | 0.00 | 44 | 1015.2 |
| 20260502230056 | 52 | 129 | 4.0 | 7.0 | 0.00 | 0.00 | 0.00 | 40 | 1015.3 |
| 20260502225551 | 52 | 95 | 4.0 | 6.0 | 0.00 | 0.00 | 0.00 | 44 | 1015.1 |
| 20260502225049 | 53 | 158 | 4.0 | 6.0 | 0.00 | 0.00 | 0.00 | 38 | 1015.1 |
| 20260502224545 | 53 | 80 | 4.0 | 6.0 | 0.00 | 0.00 | 0.00 | 38 | 1015.0 |
| 20260502224042 | 53 | 100 | 3.0 | 8.0 | 0.00 | 0.00 | 0.00 | 38 | 1015.1 |
| 20260502223540 | 53 | 106 | 4.0 | 6.0 | 0.00 | 0.00 | 0.00 | 42 | 1015.1 |
| 20260502223038 | 55 | 119 | 3.0 | 8.0 | 0.00 | 0.00 | 0.00 | 37 | 1015.3 |
| 20260502222535 | 54 | 148 | 5.0 | 5.0 | 0.00 | 0.00 | 0.00 | 41 | 1015.0 |
| 20260502222031 | 54 | 80 | 3.0 | 9.0 | 0.00 | 0.00 | 0.00 | 42 | 1015.2 |
| 20260502221527 | 53 | 92 | 3.0 | 6.0 | 0.00 | 0.00 | 0.00 | 41 | 1015.3 |
| 20260502221025 | 54 | 70 | 3.0 | 5.0 | 0.00 | 0.00 | 0.00 | 37 | 1015.0 |
| 20260502220520 | 54 | 78 | 3.0 | 5.0 | 0.00 | 0.00 | 0.00 | 37 | 1014.9 |
| 20260502220017 | 54 | 154 | 3.0 | 6.0 | 0.00 | 0.00 | 0.00 | 43 | 1015.0 |
| 20260502215514 | 54 | 143 | 2.0 | 5.0 | 0.00 | 0.00 | 0.00 | 39 | 1015.0 |
| 20260502215011 | 55 | 85 | 6.0 | 9.0 | 0.00 | 0.00 | 0.00 | 35 | 1014.7 |
| 20260502214508 | 56 | 80 | 3.0 | 5.0 | 0.00 | 0.00 | 0.00 | 37 | 1014.9 |
| 20260502214006 | 56 | 106 | 5.0 | 8.0 | 0.00 | 0.00 | 0.00 | 37 | 1014.7 |
| 20260502213502 | 57 | 52 | 3.0 | 8.0 | 0.00 | 0.00 | 0.00 | 39 | 1015.1 |
| 20260502213000 | 55 | 99 | 3.0 | 8.0 | 0.00 | 0.00 | 0.00 | 36 | 1014.8 |
| 20260502212458 | 53 | 75 | 5.0 | 7.0 | 0.00 | 0.00 | 0.00 | 40 | 1015.1 |
| 20260502211955 | 53 | 170 | 3.0 | 5.0 | 0.00 | 0.00 | 0.00 | 45 | 1014.8 |
| 20260502211451 | 53 | 157 | 4.0 | 6.0 | 0.00 | 0.00 | 0.00 | 39 | 1015.0 |
| 20260502210949 | 54 | 158 | 3.0 | 4.0 | 0.00 | 0.00 | 0.00 | 43 | 1014.9 |
| 20260502210445 | 54 | 136 | 3.0 | 5.0 | 0.00 | 0.00 | 0.00 | 40 | 1014.8 |
| 20260502205943 | 53 | 126 | 5.0 | 5.0 | 0.00 | 0.00 | 0.00 | 40 | 1014.7 |
| 20260502205439 | 53 | 98 | 6.0 | 8.0 | 0.00 | 0.00 | 0.00 | 40 | 1015.1 |
| 20260502204936 | 54 | 100 | 4.0 | 9.0 | 0.00 | 0.00 | 0.00 | 38 | 1015.1 |
| 20260502204433 | 53 | 143 | 4.0 | 6.0 | 0.00 | 0.00 | 0.00 | 40 | 1014.9 |
| 20260502203931 | 53 | 115 | 3.0 | 7.0 | 0.00 | 0.00 | 0.00 | 43 | 1015.0 |
| 20260502203428 | 54 | 53 | 3.0 | 8.0 | 0.00 | 0.00 | 0.00 | 38 | 1014.7 |
| 20260502202924 | 55 | 91 | 4.0 | 8.0 | 0.00 | 0.00 | 0.00 | 41 | 1014.8 |
| 20260502202421 | 56 | 122 | 3.0 | 6.0 | 0.00 | 0.00 | 0.00 | 41 | 1014.9 |
| 20260502201919 | 55 | 82 | 2.0 | 7.0 | 0.00 | 0.00 | 0.00 | 41 | 1015.1 |
| 20260502201415 | 56 | 99 | 3.0 | 8.0 | 0.00 | 0.00 | 0.00 | 36 | 1014.9 |
| 20260502200912 | 56 | 123 | 6.0 | 9.0 | 0.00 | 0.00 | 0.00 | 42 | 1014.9 |
| 20260502200407 | 56 | 114 | 4.0 | 7.0 | 0.00 | 0.00 | 0.00 | 42 | 1015.0 |
| 20260502195906 | 55 | 44 | 2.0 | 5.0 | 0.00 | 0.00 | 0.00 | 39 | 1015.1 |
| 20260502195402 | 56 | 105 | 4.0 | 9.0 | 0.00 | 0.00 | 0.00 | 42 | 1015.2 |
| 20260502194859 | 56 | 135 | 5.0 | 8.0 | 0.00 | 0.00 | 0.00 | 42 | 1015.2 |
| 20260502194355 | 55 | 92 | 5.0 | 9.0 | 0.00 | 0.00 | 0.00 | 39 | 1015.1 |
| 20260502193851 | 56 | 167 | 2.0 | 10.0 | 0.00 | 0.00 | 0.00 | 40 | 1015.1 |
| 20260502193349 | 57 | 58 | 0.0 | 11.0 | 0.00 | 0.00 | 0.00 | 40 | 1015.2 |
| 20260502192844 | 56 | 120 | 2.0 | 7.0 | 0.00 | 0.00 | 0.00 | 41 | 1015.2 |
| 20260502192341 | 54 | 225 | 2.0 | 7.0 | 0.00 | 0.00 | 0.00 | 40 | 1015.3 |
| 20260502191838 | 55 | 115 | 5.0 | 11.0 | 0.00 | 0.00 | 0.00 | 41 | 1015.3 |
| 20260502191337 | 57 | 203 | 5.0 | 10.0 | 0.00 | 0.00 | 0.00 | 42 | 1015.3 |
| 20260502190833 | 56 | 126 | 6.0 | 6.0 | 0.00 | 0.00 | 0.00 | 48 | 1015.7 |
| 20260502190331 | 56 | 85 | 3.0 | 8.0 | 0.00 | 0.00 | 0.00 | 46 | 1015.2 |
| 20260502185826 | 54 | 76 | 4.0 | 5.0 | 0.00 | 0.00 | 0.00 | 43 | 1015.5 |
| 20260502185322 | 54 | 113 | 4.0 | 8.0 | 0.00 | 0.00 | 0.00 | 40 | 1015.3 |